ADDS METAR Data INFO
IDs: Format: Raw Decoded Include TAF

Data at: 1107 UTC 17 Jul 2018

KRGA 171055Z AUTO 25004KT 4SM BKN011 BKN021 OVC032 23/22 A2998 RMK AO2
KRGA 171035Z AUTO 31003KT 5SM SCT013 BKN020 OVC030 23/22 A2998 RMK AO2
KRGA 171015Z AUTO 00000KT 7SM SCT032 SCT038 BKN060 23/22 A2998 RMK AO2
KRGA 170955Z AUTO 00000KT 7SM CLR 23/22 A2997 RMK AO2
KRGA 170935Z AUTO 24003KT 7SM CLR 23/22 A2997 RMK AO2
KRGA 170915Z AUTO 21005KT 7SM CLR 23/22 A2996 RMK AO2
KRGA 170855Z AUTO 21004KT 7SM SCT095 23/22 A2996 RMK AO2
KRGA 170835Z AUTO 21005KT 7SM SCT032 SCT042 BKN095 24/22 A2996 RMK AO2
KRGA 170815Z AUTO 24005KT 7SM SCT032 BKN042 24/22 A2996 RMK AO2
KRGA 170755Z AUTO 23005KT 7SM SCT044 24/22 A2996 RMK AO2
KRGA 170735Z AUTO 24004KT 7SM BKN044 BKN100 24/22 A2996 RMK AO2
KRGA 170715Z AUTO 22005KT 7SM SCT046 SCT070 SCT100 24/22 A2996 RMK AO2
KRGA 170655Z AUTO 20004KT 7SM BKN043 BKN049 BKN070 24/22 A2996 RMK AO2
KRGA 170635Z AUTO 20003KT 7SM SCT043 BKN070 OVC085 23/22 A2996 RMK AO2
KRGA 170615Z AUTO 00000KT 5SM BKN070 BKN085 OVC100 23/22 A2997 RMK AO2
KRGA 170555Z AUTO 19003KT 5SM SCT070 SCT100 23/22 A2998 RMK AO2
KRGA 170535Z AUTO 18003KT 4SM CLR 23/22 A2997 RMK AO2
KRGA 170515Z AUTO 00000KT 5SM CLR 23/22 A2998 RMK AO2
KRGA 170455Z AUTO 19003KT 7SM CLR 24/22 A2997 RMK AO2
KRGA 170435Z AUTO 21005KT 7SM SCT047 23/22 A2997 RMK AO2
KRGA 170415Z AUTO 22003KT 7SM CLR 24/22 A2997 RMK AO2
KRGA 170355Z AUTO 21005KT 7SM CLR 24/22 A2998 RMK AO2
KRGA 170335Z AUTO 20003KT 7SM CLR 24/22 A2998 RMK AO2
KRGA 170315Z AUTO 20004KT 7SM CLR 24/23 A2997 RMK AO2
KRGA 170255Z AUTO 19005KT 10SM CLR 25/22 A2998 RMK AO2
KRGA 170235Z AUTO 24003KT 7SM SCT031 24/22 A2998 RMK AO2
KRGA 170215Z AUTO 00000KT 10SM SCT032 SCT039 BKN047 25/22 A2998 RMK AO2
KRGA 170155Z AUTO 00000KT 10SM CLR 25/22 A2997 RMK AO2
KRGA 170135Z AUTO 00000KT 10SM CLR 25/22 A2997 RMK AO2
KRGA 170115Z AUTO 00000KT 7SM SCT043 25/22 A2996 RMK AO2
KRGA 170055Z AUTO 00000KT 7SM SCT045 25/23 A2996 RMK AO2
KRGA 170035Z AUTO 00000KT 10SM CLR 26/23 A2996 RMK AO2
KRGA 170015Z AUTO 00000KT 10SM CLR 27/23 A2995 RMK AO2
KRGA 162355Z AUTO 32006KT 7SM SCT036 SCT044 27/22 A2993 RMK AO2
KRGA 162335Z AUTO 31005KT 7SM SCT034 27/22 A2994 RMK AO2
KRGA 162315Z AUTO 31006KT 10SM SCT024 SCT029 SCT034 27/23 A2993 RMK AO2
KRGA 162255Z AUTO 30004KT 10SM SCT020 BKN026 BKN034 27/23 A2993 RMK AO2
KRGA 162235Z AUTO 30008KT 10SM BKN020 BKN028 BKN038 27/23 A2993 RMK AO2
KRGA 162215Z AUTO 26004KT 10SM SCT023 SCT030 BKN037 27/24 A2993 RMK AO2
KRGA 162155Z AUTO 30004KT 5SM SCT011 BKN029 OVC038 25/23 A2993 RMK AO2
KRGA 162135Z AUTO 29004KT 10SM SCT027 BKN039 OVC050 26/24 A2994 RMK AO2
KRGA 162115Z AUTO 26003KT 7SM SCT025 BKN049 OVC065 25/23 A2995 RMK AO2
KRGA 162055Z AUTO 23004KT 5SM SCT025 BKN032 OVC065 24/23 A2995 RMK AO2
KRGA 162035Z AUTO 24007G15KT 7SM SCT027 BKN036 OVC075 25/22 A2995 RMK AO2
KRGA 162015Z AUTO 25010G16KT 10SM SCT019 BKN041 OVC070 26/22 A2996 RMK AO2
KRGA 161955Z AUTO 26009G15KT 10SM SCT027 BKN048 OVC060 28/22 A2996 RMK AO2
KRGA 161935Z AUTO 25004KT 10SM SCT024 BKN031 BKN037 28/23 A2996 RMK AO2
KRGA 161915Z AUTO 22007KT 10SM SCT025 SCT033 SCT042 28/23 A2996 RMK AO2
KRGA 161855Z AUTO 22011G16KT 10SM SCT025 SCT037 BKN110 29/23 A2997 RMK AO2
KRGA 161835Z AUTO 20010KT 10SM SCT023 SCT031 BKN039 29/23 A2997 RMK AO2
KRGA 161815Z AUTO 21009G15KT 10SM BKN023 BKN031 OVC037 29/23 A2998 RMK AO2
KRGA 161755Z AUTO 22009KT 10SM BKN018 BKN023 BKN050 28/23 A2998 RMK AO2
KRGA 161735Z AUTO 18011KT 10SM BKN016 BKN050 27/23 A3000 RMK AO2
KRGA 161715Z AUTO 19007KT 10SM SCT014 SCT095 BKN120 26/23 A3002 RMK AO2
KRGA 161655Z AUTO 20006KT 10SM SCT018 SCT036 OVC110 26/23 A3003 RMK AO2
KRGA 161635Z AUTO 21008KT 10SM SCT020 BKN080 OVC095 26/22 A3003 RMK AO2
KRGA 161615Z AUTO 20007KT 10SM SCT020 BKN070 OVC085 26/22 A3003 RMK AO2
KRGA 161555Z AUTO 19006KT 10SM SCT060 BKN075 OVC100 26/22 A3004 RMK AO2
KRGA 161535Z AUTO 20006KT 10SM SCT060 SCT085 OVC100 26/22 A3004 RMK AO2
KRGA 161515Z AUTO 19005KT 10SM SCT043 SCT070 BKN110 26/22 A3003 RMK AO2
KRGA 161455Z AUTO 21006KT 7SM SCT065 SCT070 BKN110 26/22 A3004 RMK AO2
KRGA 161435Z AUTO 21005KT 10SM BKN065 OVC100 26/22 A3004 RMK AO2
KRGA 161415Z AUTO 23003KT 10SM SCT065 BKN100 26/23 A3004 RMK AO2
KRGA 161355Z AUTO 19004KT 10SM BKN110 26/22 A3004 RMK AO2
KRGA 161335Z AUTO 22004KT 10SM OVC110 25/22 A3004 RMK AO2
KRGA 161315Z AUTO 21004KT 10SM OVC110 25/22 A3003 RMK AO2
KRGA 161255Z AUTO 17004KT 10SM SCT050 BKN110 25/22 A3003 RMK AO2
KRGA 161235Z AUTO 20003KT 10SM SCT050 SCT110 24/22 A3003 RMK AO2
KRGA 161215Z AUTO 00000KT 10SM CLR 24/22 A3003 RMK AO2
KRGA 161155Z AUTO 00000KT 10SM CLR 23/22 A3002 RMK AO2
KRGA 161135Z AUTO 00000KT 5SM CLR 22/21 A3002 RMK AO2
KRGA 161115Z AUTO 00000KT 7SM SCT048 SCT120 22/21 A3002 RMK AO2
KRGA 161055Z AUTO 00000KT 7SM SCT046 BKN050 BKN065 22/21 A3002 RMK AO2
KRGA 161035Z AUTO 00000KT 7SM SCT041 BKN050 OVC070 22/21 A3003 RMK AO2
KRGA 161015Z AUTO 21003KT 4SM SCT039 BKN047 OVC070 23/22 A3003 RMK AO2
KRGA 160955Z AUTO 00000KT 5SM SCT070 23/22 A3002 RMK AO2
KRGA 160935Z AUTO 22003KT 3SM SCT060 SCT070 SCT100 22/22 A3002 RMK AO2
KRGA 160915Z AUTO 00000KT 2 1/2SM SCT060 BKN100 22/22 A3002 RMK AO2
KRGA 160855Z AUTO 00000KT 3SM SCT026 OVC060 23/22 A3002 RMK AO2
KRGA 160835Z AUTO 00000KT 4SM BKN065 OVC090 23/22 A3003 RMK AO2
KRGA 160815Z AUTO 00000KT 4SM OVC090 23/22 A3003 RMK AO2
KRGA 160755Z AUTO 00000KT 5SM OVC100 23/22 A3003 RMK AO2
KRGA 160735Z AUTO 00000KT 5SM SCT028 BKN110 23/22 A3003 RMK AO2
KRGA 160715Z AUTO 00000KT 3SM SCT028 SCT075 SCT110 22/22 A3003 RMK AO2
KRGA 160655Z AUTO 00000KT 3SM BKN075 OVC095 22/22 A3003 RMK AO2
KRGA 160635Z AUTO 00000KT 2 1/2SM BKN075 OVC095 23/22 A3003 RMK AO2
KRGA 160615Z AUTO 35003KT 2 1/2SM SCT001 BKN090 OVC110 23/22 A3004 RMK AO2
KRGA 160555Z AUTO 00000KT 4SM SCT060 BKN090 OVC110 23/22 A3004 RMK AO2
KRGA 160535Z AUTO 00000KT 7SM OVC090 23/22 A3005 RMK AO2
KRGA 160515Z AUTO 00000KT 5SM OVC100 23/22 A3005 RMK AO2
KRGA 160455Z AUTO 00000KT 5SM OVC100 23/22 A3005 RMK AO2
KRGA 160435Z AUTO 00000KT 5SM OVC100 23/22 A3005 RMK AO2
KRGA 160415Z AUTO 00000KT 5SM OVC100 23/22 A3005 RMK AO2
KRGA 160355Z AUTO 00000KT 7SM OVC100 23/22 A3005 RMK AO2
KRGA 160335Z AUTO 12003KT 5SM OVC100 23/22 A3005 RMK AO2
KRGA 160315Z AUTO 13004KT 5SM OVC100 22/21 A3005 RMK AO2
KRGA 160255Z AUTO 00000KT 7SM OVC110 23/22 A3004 RMK AO2
KRGA 160235Z AUTO 00000KT 10SM OVC110 23/21 A3004 RMK AO2
KRGA 160215Z AUTO 14003KT 7SM BKN120 23/21 A3003 RMK AO2
KRGA 160155Z AUTO 00000KT 10SM SCT110 22/21 A3002 RMK AO2
KRGA 160135Z AUTO 00000KT 10SM CLR 22/21 A3002 RMK AO2
KRGA 160115Z AUTO 13003KT 10SM SCT038 SCT049 SCT065 22/21 A3001 RMK AO2
KRGA 160055Z AUTO 18003KT 10SM SCT023 SCT038 OVC080 22/20 A3001 RMK AO2
KRGA 160035Z AUTO 00000KT 7SM SCT080 BKN090 OVC110 22/20 A3001 RMK AO2
KRGA 160015Z AUTO 00000KT 10SM SCT014 SCT050 OVC110 22/20 A3002 RMK AO2
KRGA 152355Z AUTO 31008KT 10SM BKN014 BKN031 OVC100 23/20 A3003 RMK AO2
KRGA 152335Z AUTO 33003KT 10SM SCT029 SCT065 BKN100 26/23 A3003 RMK AO2
KRGA 152315Z AUTO 00000KT 10SM SCT120 26/23 A3002 RMK AO2